sensor_id;sensor_type;location;lat;lon;timestamp;P1;durP1;ratioP1;P2;durP2;ratioP2
72674;SDS011;60752;53.962;9.614;2023-06-04T00:22:56;5.70;;;1.57;;
72674;SDS011;60752;53.962;9.614;2023-06-04T00:52:58;6.10;;;1.50;;
72674;SDS011;60752;53.962;9.614;2023-06-04T01:23:10;6.80;;;1.65;;
72674;SDS011;60752;53.962;9.614;2023-06-04T01:53:20;6.47;;;1.70;;
72674;SDS011;60752;53.962;9.614;2023-06-04T02:23:22;7.60;;;2.17;;
72674;SDS011;60752;53.962;9.614;2023-06-04T02:53:24;6.30;;;1.97;;
72674;SDS011;60752;53.962;9.614;2023-06-04T03:23:25;7.37;;;2.50;;
72674;SDS011;60752;53.962;9.614;2023-06-04T03:53:27;6.07;;;2.72;;
72674;SDS011;60752;53.962;9.614;2023-06-04T04:23:29;10.33;;;3.10;;
72674;SDS011;60752;53.962;9.614;2023-06-04T04:53:32;7.73;;;2.90;;
72674;SDS011;60752;53.962;9.614;2023-06-04T05:23:33;7.27;;;1.87;;
72674;SDS011;60752;53.962;9.614;2023-06-04T05:53:35;7.40;;;2.50;;
72674;SDS011;60752;53.962;9.614;2023-06-04T06:23:37;4.45;;;1.50;;
72674;SDS011;60752;53.962;9.614;2023-06-04T06:53:39;4.90;;;1.60;;
72674;SDS011;60752;53.962;9.614;2023-06-04T07:23:41;5.30;;;1.43;;
72674;SDS011;60752;53.962;9.614;2023-06-04T07:53:43;6.77;;;1.30;;
72674;SDS011;60752;53.962;9.614;2023-06-04T08:23:45;6.47;;;1.43;;
72674;SDS011;60752;53.962;9.614;2023-06-04T08:53:46;6.15;;;1.80;;
72674;SDS011;60752;53.962;9.614;2023-06-04T09:23:49;6.73;;;1.47;;
72674;SDS011;60752;53.962;9.614;2023-06-04T09:53:57;5.47;;;1.37;;
72674;SDS011;60752;53.962;9.614;2023-06-04T10:24:00;5.87;;;1.13;;
72674;SDS011;60752;53.962;9.614;2023-06-04T10:54:02;5.40;;;2.00;;
72674;SDS011;60752;53.962;9.614;2023-06-04T11:24:05;4.20;;;1.40;;
72674;SDS011;60752;53.962;9.614;2023-06-04T11:54:07;7.53;;;1.20;;
72674;SDS011;60752;53.962;9.614;2023-06-04T12:24:10;6.30;;;1.50;;
72674;SDS011;60752;53.962;9.614;2023-06-04T12:54:13;5.03;;;1.33;;
72674;SDS011;60752;53.962;9.614;2023-06-04T13:24:15;5.07;;;1.60;;
72674;SDS011;60752;53.962;9.614;2023-06-04T13:54:17;8.70;;;1.42;;
72674;SDS011;60752;53.962;9.614;2023-06-04T14:24:18;5.43;;;1.23;;
72674;SDS011;60752;53.962;9.614;2023-06-04T14:54:20;4.10;;;1.20;;
72674;SDS011;60752;53.962;9.614;2023-06-04T15:24:22;6.47;;;1.30;;
72674;SDS011;60752;53.962;9.614;2023-06-04T15:54:24;3.00;;;0.97;;
72674;SDS011;60752;53.962;9.614;2023-06-04T16:24:26;2.85;;;1.13;;
72674;SDS011;60752;53.962;9.614;2023-06-04T16:54:27;5.63;;;1.40;;
72674;SDS011;60752;53.962;9.614;2023-06-04T17:24:29;3.77;;;1.20;;
72674;SDS011;60752;53.962;9.614;2023-06-04T17:54:31;3.90;;;1.37;;
72674;SDS011;60752;53.962;9.614;2023-06-04T18:24:33;5.70;;;1.80;;
72674;SDS011;60752;53.962;9.614;2023-06-04T18:54:35;4.25;;;1.65;;
72674;SDS011;60752;53.962;9.614;2023-06-04T19:24:37;6.47;;;1.93;;
72674;SDS011;60752;53.962;9.614;2023-06-04T19:54:39;8.33;;;1.97;;
72674;SDS011;60752;53.962;9.614;2023-06-04T20:24:41;6.37;;;1.80;;
72674;SDS011;60752;53.962;9.614;2023-06-04T20:54:43;5.70;;;1.57;;
72674;SDS011;60752;53.962;9.614;2023-06-04T21:24:45;6.80;;;1.98;;
72674;SDS011;60752;53.962;9.614;2023-06-04T21:54:47;4.87;;;1.70;;
72674;SDS011;60752;53.962;9.614;2023-06-04T22:24:49;10.00;;;2.17;;
72674;SDS011;60752;53.962;9.614;2023-06-04T22:54:51;6.03;;;2.37;;
72674;SDS011;60752;53.962;9.614;2023-06-04T23:24:53;5.80;;;2.50;;
72674;SDS011;60752;53.962;9.614;2023-06-04T23:54:54;5.78;;;2.30;;
